Lebanon, WI

11:22 PM CDT en Octubre 01, 2014 (GMT -0500)
Watertown Municipal | Change Station
CLOSE
Current Station
Aeropuerto
Location: Watertown,
Altura: 833 ft
Estaciones meteorológicas cercanas

Alt 833 ft 43.17 °N, 88.72 °W | Updated 27 minutes ago

Nublado
Nublado
61 ° F
Sensación térmica 61 ° F
N
7
Viento Variable Viento desde SE

Hoy
Alta -- | Baja -- ° F
--% Posibilidad de precipitaciones
Ayer
Alta -- | Baja -- ° F
Precip. -- pul
6:52 AM 6:36 PM
Cuarto creciente, 54% visible
Presión 29.88 pul
Visibilidad 10.0 Millas
Nubes Nubes dispersas 5000 ft
Nublado 8000 ft
Punto de rocío 55 ° F
Humedad 81%
Precipitaciones 0.00 pul
Espesor de la nieve No disponible.
UV 0 de una escala de 12
Polen 3.00 de una escala de 12
Calidad del aire No disponible.
Flu Activity No disponible.
METAR KRYV 020355Z AUTO 14006KT 10SM SCT050 OVC080 16/13 A2988 RMK AO2 T01600127

More Conditions Fewer Conditions

Presión 29.88 pul
Visibilidad 10.0 Millas
Nubes Nubes dispersas 5000 ft
Nublado 8000 ft
Punto de rocío 55 ° F
Humedad 81%
Precipitaciones 0.00 pul
Espesor de la nieve No disponible.
UV 0 de una escala de 12
Polen 3.00 de una escala de 12
Calidad del aire No disponible.
Flu Activity No disponible.
METAR KRYV 020355Z AUTO 14006KT 10SM SCT050 OVC080 16/13 A2988 RMK AO2 T01600127

More Conditions Fewer Conditions

10-Day Weather Forecast

Almanac

Astronomía

Oct. 01, 2014 Salida Puesta
Hora real 6:52 AM CDT 6:36 PM CDT
Crepúsculo civil 6:23 AM CDT 7:04 PM CDT
Crepúsculo náutico 5:50 AM CDT 7:37 PM CDT
Crepúsculo astronómico 5:17 AM CDT 8:10 PM CDT
Luna 1:59 PM CDT (10/1) Sin puesta de luna
Horas de luz 12h 40m
Horas de luz
11h 43m
Tomorrow will be 2m 56s shorter.
Cuarto creciente, 54% of the Moon is Illuminated
Oct 2
Cuarto creciente
Oct 8
Luna llena
Oct 15
Cuarto menguante
Oct 23
Nueva
Oct 30
Cuarto creciente

Extremos de ayer

Máximos del estado Bajos del estado

Community

WunderPhotos

Upload Photos

1,758,186 ¡fotos cargadas!

Nearby

Grosos de nieve

Estación Profundido Altura
No tenemos constancia de nieve nueva.

Actividad de terremotos

Ciudad Distance Mag. Tiempo y dato
No hay informes recientes de la actividad sísmica.
Magnitud mínima muestra es 2,5.

Temperaturas de aguas costeras

Lugar Temperatura
Sin partes meteorológicos de las estaciones

Estaciones meteorológicas cercanas